Terminal Aerodrome Forecast
Issued by NWS

Current Version | Previous Version | Text Only | Print | Product List | Glossary On
Versions: 1 2 3 4 5 6 7 8 9 10 11 12 13 14 15
139
FTUS42 TJSJ 202356 CCA
TAFJSJ
TAF COR
TJSJ 202356Z 2100/2124 33010KT P6SM -SHRA SCT026 BKN045 BKN110
     FM210200 02015KT P6SM VCSH FEW025 SCT050 SCT100
      TEMPO 2107/2109 02016G22KT 5SM SHRA BKN025 BKN035
     FM211300 34010G18KT P6SM FEW030 FEW060
     FM212300 35008KT P6SM VCSH FEW030=

USA.gov is the U.S. government's official web portal to all federal, state and local government web resources and services.